sensor_id;sensor_type;location;lat;lon;timestamp;P1;durP1;ratioP1;P2;durP2;ratioP2
47762;SDS011;33526;42.690;23.322;2023-07-31T00:01:19;4.05;;;3.50;;
47762;SDS011;33526;42.690;23.322;2023-07-31T00:03:45;6.05;;;3.67;;
47762;SDS011;33526;42.690;23.322;2023-07-31T00:08:37;5.90;;;3.70;;
47762;SDS011;33526;42.690;23.322;2023-07-31T00:11:02;4.88;;;3.35;;
47762;SDS011;33526;42.690;23.322;2023-07-31T00:13:27;3.08;;;2.78;;
47762;SDS011;33526;42.690;23.322;2023-07-31T00:15:53;4.40;;;3.17;;
47762;SDS011;33526;42.690;23.322;2023-07-31T00:18:18;3.78;;;3.20;;
47762;SDS011;33526;42.690;23.322;2023-07-31T00:20:44;3.40;;;2.88;;
47762;SDS011;33526;42.690;23.322;2023-07-31T00:23:09;3.50;;;3.20;;
47762;SDS011;33526;42.690;23.322;2023-07-31T00:25:35;3.92;;;3.53;;
47762;SDS011;33526;42.690;23.322;2023-07-31T00:28:00;7.18;;;3.40;;
47762;SDS011;33526;42.690;23.322;2023-07-31T00:30:26;4.57;;;3.50;;
47762;SDS011;33526;42.690;23.322;2023-07-31T00:32:52;7.18;;;4.93;;
47762;SDS011;33526;42.690;23.322;2023-07-31T00:35:17;5.22;;;3.70;;
47762;SDS011;33526;42.690;23.322;2023-07-31T00:37:43;5.05;;;4.43;;
47762;SDS011;33526;42.690;23.322;2023-07-31T00:40:08;4.30;;;3.90;;
47762;SDS011;33526;42.690;23.322;2023-07-31T00:42:34;6.43;;;4.47;;
47762;SDS011;33526;42.690;23.322;2023-07-31T00:44:59;4.55;;;4.10;;
47762;SDS011;33526;42.690;23.322;2023-07-31T00:47:25;4.93;;;4.20;;
47762;SDS011;33526;42.690;23.322;2023-07-31T00:49:50;4.85;;;4.28;;
47762;SDS011;33526;42.690;23.322;2023-07-31T00:52:16;6.60;;;5.20;;
47762;SDS011;33526;42.690;23.322;2023-07-31T00:54:42;8.15;;;6.40;;
47762;SDS011;33526;42.690;23.322;2023-07-31T00:57:08;8.40;;;7.53;;
47762;SDS011;33526;42.690;23.322;2023-07-31T00:59:33;8.82;;;7.93;;
47762;SDS011;33526;42.690;23.322;2023-07-31T01:01:59;10.25;;;9.20;;
47762;SDS011;33526;42.690;23.322;2023-07-31T01:04:25;11.07;;;9.68;;
47762;SDS011;33526;42.690;23.322;2023-07-31T01:07:00;10.93;;;9.02;;
47762;SDS011;33526;42.690;23.322;2023-07-31T01:09:47;10.05;;;9.05;;
47762;SDS011;33526;42.690;23.322;2023-07-31T01:12:22;10.88;;;9.73;;
47762;SDS011;33526;42.690;23.322;2023-07-31T01:15:08;10.93;;;9.27;;
47762;SDS011;33526;42.690;23.322;2023-07-31T01:17:39;12.98;;;11.27;;
47762;SDS011;33526;42.690;23.322;2023-07-31T01:20:17;16.10;;;13.88;;
47762;SDS011;33526;42.690;23.322;2023-07-31T01:31:48;18.13;;;16.20;;
47762;SDS011;33526;42.690;23.322;2023-07-31T01:34:17;17.88;;;16.05;;
47762;SDS011;33526;42.690;23.322;2023-07-31T01:36:43;27.58;;;21.60;;
47762;SDS011;33526;42.690;23.322;2023-07-31T01:39:09;23.85;;;21.02;;
47762;SDS011;33526;42.690;23.322;2023-07-31T01:41:34;24.95;;;22.27;;
47762;SDS011;33526;42.690;23.322;2023-07-31T01:43:59;30.75;;;25.85;;
47762;SDS011;33526;42.690;23.322;2023-07-31T01:46:25;29.50;;;25.33;;
47762;SDS011;33526;42.690;23.322;2023-07-31T01:48:50;32.60;;;28.55;;
47762;SDS011;33526;42.690;23.322;2023-07-31T01:51:16;34.58;;;28.45;;
47762;SDS011;33526;42.690;23.322;2023-07-31T01:53:41;33.65;;;28.45;;
47762;SDS011;33526;42.690;23.322;2023-07-31T01:56:07;33.17;;;28.88;;
47762;SDS011;33526;42.690;23.322;2023-07-31T01:58:32;33.00;;;27.95;;
47762;SDS011;33526;42.690;23.322;2023-07-31T02:00:58;30.65;;;25.67;;
47762;SDS011;33526;42.690;23.322;2023-07-31T02:03:23;31.77;;;26.25;;
47762;SDS011;33526;42.690;23.322;2023-07-31T02:05:49;31.50;;;26.17;;
47762;SDS011;33526;42.690;23.322;2023-07-31T02:08:15;28.25;;;24.48;;
47762;SDS011;33526;42.690;23.322;2023-07-31T02:10:41;26.77;;;23.88;;
47762;SDS011;33526;42.690;23.322;2023-07-31T02:13:06;28.33;;;24.00;;
47762;SDS011;33526;42.690;23.322;2023-07-31T02:15:32;25.08;;;22.38;;
47762;SDS011;33526;42.690;23.322;2023-07-31T02:17:58;25.23;;;22.52;;
47762;SDS011;33526;42.690;23.322;2023-07-31T02:20:23;25.88;;;23.00;;
47762;SDS011;33526;42.690;23.322;2023-07-31T02:22:49;27.23;;;23.65;;
47762;SDS011;33526;42.690;23.322;2023-07-31T02:25:15;24.73;;;22.13;;
47762;SDS011;33526;42.690;23.322;2023-07-31T02:27:40;25.10;;;22.40;;
47762;SDS011;33526;42.690;23.322;2023-07-31T02:30:06;26.52;;;23.13;;
47762;SDS011;33526;42.690;23.322;2023-07-31T02:32:32;26.20;;;22.55;;
47762;SDS011;33526;42.690;23.322;2023-07-31T02:34:57;25.70;;;22.88;;
47762;SDS011;33526;42.690;23.322;2023-07-31T02:37:23;26.15;;;23.35;;
47762;SDS011;33526;42.690;23.322;2023-07-31T02:39:48;26.65;;;23.80;;
47762;SDS011;33526;42.690;23.322;2023-07-31T02:42:14;25.55;;;22.83;;
47762;SDS011;33526;42.690;23.322;2023-07-31T02:44:39;27.42;;;23.48;;
47762;SDS011;33526;42.690;23.322;2023-07-31T02:47:05;25.95;;;23.10;;
47762;SDS011;33526;42.690;23.322;2023-07-31T02:49:31;29.20;;;23.10;;
47762;SDS011;33526;42.690;23.322;2023-07-31T02:51:56;24.98;;;22.27;;
47762;SDS011;33526;42.690;23.322;2023-07-31T02:54:21;27.63;;;23.77;;
47762;SDS011;33526;42.690;23.322;2023-07-31T02:56:47;26.48;;;23.67;;
47762;SDS011;33526;42.690;23.322;2023-07-31T02:59:13;28.48;;;22.95;;
47762;SDS011;33526;42.690;23.322;2023-07-31T03:01:38;25.05;;;22.35;;
47762;SDS011;33526;42.690;23.322;2023-07-31T03:04:04;28.08;;;23.25;;
47762;SDS011;33526;42.690;23.322;2023-07-31T03:06:29;25.63;;;22.70;;
47762;SDS011;33526;42.690;23.322;2023-07-31T03:08:55;25.55;;;22.85;;
47762;SDS011;33526;42.690;23.322;2023-07-31T03:11:20;25.38;;;22.60;;
47762;SDS011;33526;42.690;23.322;2023-07-31T03:13:46;28.88;;;23.65;;
47762;SDS011;33526;42.690;23.322;2023-07-31T03:16:11;25.90;;;23.00;;
47762;SDS011;33526;42.690;23.322;2023-07-31T03:18:36;29.23;;;22.88;;
47762;SDS011;33526;42.690;23.322;2023-07-31T03:21:02;25.88;;;23.08;;
47762;SDS011;33526;42.690;23.322;2023-07-31T03:23:27;24.98;;;22.35;;
47762;SDS011;33526;42.690;23.322;2023-07-31T03:25:59;25.27;;;22.58;;
47762;SDS011;33526;42.690;23.322;2023-07-31T03:28:25;26.70;;;23.48;;
47762;SDS011;33526;42.690;23.322;2023-07-31T03:30:51;26.38;;;23.58;;
47762;SDS011;33526;42.690;23.322;2023-07-31T03:33:17;31.52;;;24.67;;
47762;SDS011;33526;42.690;23.322;2023-07-31T03:35:42;27.88;;;24.85;;
47762;SDS011;33526;42.690;23.322;2023-07-31T03:38:08;28.80;;;24.20;;
47762;SDS011;33526;42.690;23.322;2023-07-31T03:40:33;26.30;;;23.42;;
47762;SDS011;33526;42.690;23.322;2023-07-31T03:42:59;26.85;;;23.95;;
47762;SDS011;33526;42.690;23.322;2023-07-31T03:45:24;30.45;;;24.35;;
47762;SDS011;33526;42.690;23.322;2023-07-31T03:47:50;28.75;;;24.60;;
47762;SDS011;33526;42.690;23.322;2023-07-31T03:50:15;30.42;;;24.15;;
47762;SDS011;33526;42.690;23.322;2023-07-31T03:52:41;27.52;;;24.20;;
47762;SDS011;33526;42.690;23.322;2023-07-31T03:55:06;32.08;;;25.52;;
47762;SDS011;33526;42.690;23.322;2023-07-31T03:57:32;28.80;;;24.88;;
47762;SDS011;33526;42.690;23.322;2023-07-31T03:59:58;27.38;;;24.20;;
47762;SDS011;33526;42.690;23.322;2023-07-31T04:02:23;31.55;;;25.10;;
47762;SDS011;33526;42.690;23.322;2023-07-31T04:04:49;35.20;;;26.00;;
47762;SDS011;33526;42.690;23.322;2023-07-31T04:07:14;29.65;;;24.98;;
47762;SDS011;33526;42.690;23.322;2023-07-31T04:09:40;30.00;;;24.98;;
47762;SDS011;33526;42.690;23.322;2023-07-31T04:12:05;30.02;;;25.95;;
47762;SDS011;33526;42.690;23.322;2023-07-31T04:14:31;33.47;;;26.65;;
47762;SDS011;33526;42.690;23.322;2023-07-31T04:16:56;32.65;;;26.48;;
47762;SDS011;33526;42.690;23.322;2023-07-31T04:19:21;33.15;;;27.35;;
47762;SDS011;33526;42.690;23.322;2023-07-31T04:21:47;33.05;;;27.05;;
47762;SDS011;33526;42.690;23.322;2023-07-31T04:24:12;33.97;;;27.15;;
47762;SDS011;33526;42.690;23.322;2023-07-31T04:26:38;30.77;;;25.30;;
47762;SDS011;33526;42.690;23.322;2023-07-31T04:29:03;30.33;;;25.75;;
47762;SDS011;33526;42.690;23.322;2023-07-31T04:31:28;34.03;;;26.30;;
47762;SDS011;33526;42.690;23.322;2023-07-31T04:33:54;31.48;;;26.58;;
47762;SDS011;33526;42.690;23.322;2023-07-31T04:36:19;29.33;;;24.48;;
47762;SDS011;33526;42.690;23.322;2023-07-31T04:38:45;29.67;;;24.48;;
47762;SDS011;33526;42.690;23.322;2023-07-31T04:41:11;36.25;;;26.70;;
47762;SDS011;33526;42.690;23.322;2023-07-31T04:43:36;27.50;;;24.00;;
47762;SDS011;33526;42.690;23.322;2023-07-31T04:46:04;30.60;;;26.33;;
47762;SDS011;33526;42.690;23.322;2023-07-31T04:48:30;28.20;;;24.05;;
47762;SDS011;33526;42.690;23.322;2023-07-31T04:50:55;30.48;;;24.20;;
47762;SDS011;33526;42.690;23.322;2023-07-31T04:53:21;25.33;;;21.80;;
47762;SDS011;33526;42.690;23.322;2023-07-31T04:55:46;30.15;;;24.38;;
47762;SDS011;33526;42.690;23.322;2023-07-31T04:58:11;27.05;;;23.85;;
47762;SDS011;33526;42.690;23.322;2023-07-31T05:00:37;28.80;;;23.80;;
47762;SDS011;33526;42.690;23.322;2023-07-31T05:03:02;26.30;;;23.48;;
47762;SDS011;33526;42.690;23.322;2023-07-31T05:05:28;27.73;;;22.65;;
47762;SDS011;33526;42.690;23.322;2023-07-31T05:07:53;26.13;;;22.58;;
47762;SDS011;33526;42.690;23.322;2023-07-31T05:10:19;23.00;;;20.48;;
47762;SDS011;33526;42.690;23.322;2023-07-31T05:12:45;24.55;;;21.17;;
47762;SDS011;33526;42.690;23.322;2023-07-31T05:15:11;24.95;;;20.42;;
47762;SDS011;33526;42.690;23.322;2023-07-31T05:17:37;21.15;;;18.95;;
47762;SDS011;33526;42.690;23.322;2023-07-31T05:20:05;19.60;;;17.23;;
47762;SDS011;33526;42.690;23.322;2023-07-31T05:22:31;18.77;;;16.80;;
47762;SDS011;33526;42.690;23.322;2023-07-31T05:24:57;17.98;;;16.10;;
47762;SDS011;33526;42.690;23.322;2023-07-31T05:27:22;16.98;;;15.27;;
47762;SDS011;33526;42.690;23.322;2023-07-31T05:29:48;17.27;;;15.40;;
47762;SDS011;33526;42.690;23.322;2023-07-31T05:32:14;17.00;;;15.20;;
47762;SDS011;33526;42.690;23.322;2023-07-31T05:34:40;15.40;;;13.80;;
47762;SDS011;33526;42.690;23.322;2023-07-31T05:37:05;15.95;;;14.30;;
47762;SDS011;33526;42.690;23.322;2023-07-31T05:39:31;16.48;;;13.60;;
47762;SDS011;33526;42.690;23.322;2023-07-31T05:41:57;15.48;;;13.85;;
47762;SDS011;33526;42.690;23.322;2023-07-31T05:44:23;14.25;;;12.85;;
47762;SDS011;33526;42.690;23.322;2023-07-31T05:46:49;18.38;;;12.52;;
47762;SDS011;33526;42.690;23.322;2023-07-31T05:49:15;13.23;;;10.80;;
47762;SDS011;33526;42.690;23.322;2023-07-31T05:51:40;12.35;;;11.15;;
47762;SDS011;33526;42.690;23.322;2023-07-31T05:54:06;12.40;;;11.10;;
47762;SDS011;33526;42.690;23.322;2023-07-31T05:56:32;10.60;;;9.50;;
47762;SDS011;33526;42.690;23.322;2023-07-31T05:58:59;10.27;;;9.27;;
47762;SDS011;33526;42.690;23.322;2023-07-31T06:01:25;11.10;;;9.48;;
47762;SDS011;33526;42.690;23.322;2023-07-31T06:03:51;10.88;;;9.77;;
47762;SDS011;33526;42.690;23.322;2023-07-31T06:06:17;12.27;;;8.90;;
47762;SDS011;33526;42.690;23.322;2023-07-31T06:08:43;11.25;;;9.18;;
47762;SDS011;33526;42.690;23.322;2023-07-31T06:13:38;10.00;;;8.30;;
47762;SDS011;33526;42.690;23.322;2023-07-31T06:16:25;7.30;;;6.60;;
47762;SDS011;33526;42.690;23.322;2023-07-31T06:18:54;8.15;;;6.07;;
47762;SDS011;33526;42.690;23.322;2023-07-31T06:21:20;6.88;;;5.68;;
47762;SDS011;33526;42.690;23.322;2023-07-31T06:26:13;5.25;;;4.75;;
47762;SDS011;33526;42.690;23.322;2023-07-31T06:28:39;8.20;;;5.22;;
47762;SDS011;33526;42.690;23.322;2023-07-31T06:31:06;8.50;;;5.50;;
47762;SDS011;33526;42.690;23.322;2023-07-31T06:33:35;6.88;;;5.43;;
47762;SDS011;33526;42.690;23.322;2023-07-31T06:38:28;8.70;;;6.22;;
47762;SDS011;33526;42.690;23.322;2023-07-31T06:40:54;10.85;;;6.03;;
47762;SDS011;33526;42.690;23.322;2023-07-31T06:43:20;8.93;;;5.93;;
47762;SDS011;33526;42.690;23.322;2023-07-31T06:45:48;9.55;;;6.13;;
47762;SDS011;33526;42.690;23.322;2023-07-31T06:48:16;8.00;;;5.32;;
47762;SDS011;33526;42.690;23.322;2023-07-31T06:50:41;10.20;;;5.65;;
47762;SDS011;33526;42.690;23.322;2023-07-31T06:53:07;8.95;;;5.15;;
47762;SDS011;33526;42.690;23.322;2023-07-31T06:55:33;9.27;;;5.38;;
47762;SDS011;33526;42.690;23.322;2023-07-31T06:57:58;8.15;;;4.72;;
47762;SDS011;33526;42.690;23.322;2023-07-31T07:00:24;34.53;;;16.08;;
47762;SDS011;33526;42.690;23.322;2023-07-31T07:02:49;8.70;;;6.47;;
47762;SDS011;33526;42.690;23.322;2023-07-31T07:05:16;7.55;;;5.38;;
47762;SDS011;33526;42.690;23.322;2023-07-31T07:07:44;6.00;;;4.85;;
47762;SDS011;33526;42.690;23.322;2023-07-31T07:10:10;7.63;;;4.50;;
47762;SDS011;33526;42.690;23.322;2023-07-31T07:12:36;5.78;;;4.60;;
47762;SDS011;33526;42.690;23.322;2023-07-31T07:15:04;5.05;;;4.22;;
47762;SDS011;33526;42.690;23.322;2023-07-31T07:17:30;4.80;;;4.03;;
47762;SDS011;33526;42.690;23.322;2023-07-31T07:19:56;6.05;;;4.00;;
47762;SDS011;33526;42.690;23.322;2023-07-31T07:22:23;11.38;;;4.38;;
47762;SDS011;33526;42.690;23.322;2023-07-31T07:24:50;6.13;;;3.80;;
47762;SDS011;33526;42.690;23.322;2023-07-31T07:29:41;5.95;;;4.32;;
47762;SDS011;33526;42.690;23.322;2023-07-31T07:32:11;4.82;;;3.85;;
47762;SDS011;33526;42.690;23.322;2023-07-31T07:34:47;10.05;;;5.55;;
47762;SDS011;33526;42.690;23.322;2023-07-31T07:37:22;5.95;;;4.18;;
47762;SDS011;33526;42.690;23.322;2023-07-31T07:40:25;4.70;;;4.18;;
47762;SDS011;33526;42.690;23.322;2023-07-31T07:42:58;8.90;;;3.90;;
47762;SDS011;33526;42.690;23.322;2023-07-31T07:46:08;5.97;;;4.15;;
47762;SDS011;33526;42.690;23.322;2023-07-31T07:49:58;10.27;;;5.20;;
47762;SDS011;33526;42.690;23.322;2023-07-31T07:57:17;4.90;;;3.22;;
47762;SDS011;33526;42.690;23.322;2023-07-31T08:00:50;3.80;;;3.40;;
47762;SDS011;33526;42.690;23.322;2023-07-31T08:04:26;4.15;;;3.25;;
47762;SDS011;33526;42.690;23.322;2023-07-31T08:07:47;6.25;;;3.97;;
47762;SDS011;33526;42.690;23.322;2023-07-31T08:11:09;4.05;;;3.50;;
47762;SDS011;33526;42.690;23.322;2023-07-31T08:14:38;5.40;;;4.13;;
47762;SDS011;33526;42.690;23.322;2023-07-31T08:18:19;10.85;;;4.20;;
47762;SDS011;33526;42.690;23.322;2023-07-31T08:20:48;4.82;;;4.07;;
47762;SDS011;33526;42.690;23.322;2023-07-31T08:23:14;3.95;;;3.45;;
47762;SDS011;33526;42.690;23.322;2023-07-31T08:25:40;6.72;;;3.50;;
47762;SDS011;33526;42.690;23.322;2023-07-31T08:28:09;5.57;;;3.88;;
47762;SDS011;33526;42.690;23.322;2023-07-31T08:30:35;6.65;;;3.38;;
47762;SDS011;33526;42.690;23.322;2023-07-31T08:33:01;6.83;;;3.70;;
47762;SDS011;33526;42.690;23.322;2023-07-31T08:35:26;7.72;;;4.00;;
47762;SDS011;33526;42.690;23.322;2023-07-31T08:37:55;6.43;;;3.95;;
47762;SDS011;33526;42.690;23.322;2023-07-31T08:42:49;3.97;;;3.08;;
47762;SDS011;33526;42.690;23.322;2023-07-31T08:45:17;4.65;;;3.65;;
47762;SDS011;33526;42.690;23.322;2023-07-31T08:47:45;10.25;;;5.82;;
47762;SDS011;33526;42.690;23.322;2023-07-31T08:50:16;3.92;;;3.50;;
47762;SDS011;33526;42.690;23.322;2023-07-31T08:53:01;4.93;;;3.50;;
47762;SDS011;33526;42.690;23.322;2023-07-31T08:55:30;6.45;;;3.38;;
47762;SDS011;33526;42.690;23.322;2023-07-31T08:57:59;6.07;;;3.05;;
47762;SDS011;33526;42.690;23.322;2023-07-31T09:00:28;3.55;;;3.22;;
47762;SDS011;33526;42.690;23.322;2023-07-31T09:03:01;4.80;;;2.78;;
47762;SDS011;33526;42.690;23.322;2023-07-31T09:05:30;3.95;;;3.25;;
47762;SDS011;33526;42.690;23.322;2023-07-31T09:07:57;6.30;;;3.10;;
47762;SDS011;33526;42.690;23.322;2023-07-31T09:10:24;6.88;;;4.78;;
47762;SDS011;33526;42.690;23.322;2023-07-31T09:12:53;4.22;;;3.58;;
47762;SDS011;33526;42.690;23.322;2023-07-31T09:15:21;3.28;;;2.97;;
47762;SDS011;33526;42.690;23.322;2023-07-31T09:18:03;7.65;;;2.80;;
47762;SDS011;33526;42.690;23.322;2023-07-31T09:20:34;5.53;;;3.10;;
47762;SDS011;33526;42.690;23.322;2023-07-31T09:23:04;12.15;;;6.90;;
47762;SDS011;33526;42.690;23.322;2023-07-31T09:25:43;5.97;;;3.50;;
47762;SDS011;33526;42.690;23.322;2023-07-31T09:28:14;7.10;;;3.40;;
47762;SDS011;33526;42.690;23.322;2023-07-31T09:30:51;5.65;;;3.95;;
47762;SDS011;33526;42.690;23.322;2023-07-31T09:33:19;4.97;;;3.85;;
47762;SDS011;33526;42.690;23.322;2023-07-31T09:35:45;8.65;;;3.88;;
47762;SDS011;33526;42.690;23.322;2023-07-31T09:38:13;4.10;;;3.42;;
47762;SDS011;33526;42.690;23.322;2023-07-31T09:40:42;4.50;;;3.00;;
47762;SDS011;33526;42.690;23.322;2023-07-31T09:43:10;5.38;;;3.40;;
47762;SDS011;33526;42.690;23.322;2023-07-31T09:45:47;6.30;;;3.05;;
47762;SDS011;33526;42.690;23.322;2023-07-31T09:48:16;4.93;;;3.28;;
47762;SDS011;33526;42.690;23.322;2023-07-31T09:50:47;6.32;;;3.33;;
47762;SDS011;33526;42.690;23.322;2023-07-31T09:53:29;3.38;;;2.75;;
47762;SDS011;33526;42.690;23.322;2023-07-31T09:55:55;3.45;;;2.35;;
47762;SDS011;33526;42.690;23.322;2023-07-31T09:58:24;3.88;;;2.88;;
47762;SDS011;33526;42.690;23.322;2023-07-31T10:00:54;4.85;;;2.50;;
47762;SDS011;33526;42.690;23.322;2023-07-31T10:03:23;2.80;;;2.50;;
47762;SDS011;33526;42.690;23.322;2023-07-31T10:08:20;2.78;;;2.40;;
47762;SDS011;33526;42.690;23.322;2023-07-31T10:10:54;2.90;;;2.58;;
47762;SDS011;33526;42.690;23.322;2023-07-31T10:13:24;3.40;;;2.80;;
47762;SDS011;33526;42.690;23.322;2023-07-31T10:15:54;2.70;;;2.30;;
47762;SDS011;33526;42.690;23.322;2023-07-31T10:18:20;4.03;;;2.47;;
47762;SDS011;33526;42.690;23.322;2023-07-31T10:20:46;4.22;;;2.08;;
47762;SDS011;33526;42.690;23.322;2023-07-31T10:23:17;2.10;;;1.90;;
47762;SDS011;33526;42.690;23.322;2023-07-31T10:25:46;3.60;;;2.83;;
47762;SDS011;33526;42.690;23.322;2023-07-31T10:28:13;6.68;;;2.60;;
47762;SDS011;33526;42.690;23.322;2023-07-31T10:30:40;4.37;;;2.90;;
47762;SDS011;33526;42.690;23.322;2023-07-31T10:33:11;4.10;;;2.30;;
47762;SDS011;33526;42.690;23.322;2023-07-31T10:35:36;2.70;;;2.10;;
47762;SDS011;33526;42.690;23.322;2023-07-31T10:41:07;2.47;;;2.25;;
47762;SDS011;33526;42.690;23.322;2023-07-31T10:43:33;2.90;;;2.38;;
47762;SDS011;33526;42.690;23.322;2023-07-31T10:45:59;2.90;;;2.47;;
47762;SDS011;33526;42.690;23.322;2023-07-31T10:48:27;2.15;;;1.88;;
47762;SDS011;33526;42.690;23.322;2023-07-31T10:51:08;3.13;;;1.85;;
47762;SDS011;33526;42.690;23.322;2023-07-31T10:53:40;5.53;;;2.42;;
47762;SDS011;33526;42.690;23.322;2023-07-31T10:56:07;5.10;;;2.78;;
47762;SDS011;33526;42.690;23.322;2023-07-31T10:58:43;3.55;;;2.47;;
47762;SDS011;33526;42.690;23.322;2023-07-31T11:01:10;4.10;;;2.88;;
47762;SDS011;33526;42.690;23.322;2023-07-31T11:03:46;7.20;;;2.30;;
47762;SDS011;33526;42.690;23.322;2023-07-31T11:06:29;4.50;;;2.70;;
47762;SDS011;33526;42.690;23.322;2023-07-31T11:08:56;6.38;;;2.08;;
47762;SDS011;33526;42.690;23.322;2023-07-31T11:11:23;3.67;;;2.20;;
47762;SDS011;33526;42.690;23.322;2023-07-31T11:13:50;2.70;;;2.05;;
47762;SDS011;33526;42.690;23.322;2023-07-31T11:16:19;6.28;;;2.83;;
47762;SDS011;33526;42.690;23.322;2023-07-31T11:18:47;4.45;;;2.50;;
47762;SDS011;33526;42.690;23.322;2023-07-31T11:21:18;6.25;;;3.05;;
47762;SDS011;33526;42.690;23.322;2023-07-31T11:23:49;6.10;;;3.05;;
47762;SDS011;33526;42.690;23.322;2023-07-31T11:26:17;5.25;;;2.67;;
47762;SDS011;33526;42.690;23.322;2023-07-31T11:28:47;8.60;;;2.50;;
47762;SDS011;33526;42.690;23.322;2023-07-31T11:31:17;6.18;;;3.00;;
47762;SDS011;33526;42.690;23.322;2023-07-31T11:33:46;3.70;;;2.30;;
47762;SDS011;33526;42.690;23.322;2023-07-31T11:36:17;2.55;;;2.10;;
47762;SDS011;33526;42.690;23.322;2023-07-31T11:38:49;5.60;;;2.20;;
47762;SDS011;33526;42.690;23.322;2023-07-31T11:41:40;7.50;;;2.60;;
47762;SDS011;33526;42.690;23.322;2023-07-31T11:44:09;6.18;;;2.83;;
47762;SDS011;33526;42.690;23.322;2023-07-31T11:46:39;9.30;;;3.35;;
47762;SDS011;33526;42.690;23.322;2023-07-31T11:49:53;5.30;;;3.42;;
47762;SDS011;33526;42.690;23.322;2023-07-31T12:07:54;8.68;;;3.63;;
47762;SDS011;33526;42.690;23.322;2023-07-31T12:18:50;5.13;;;4.40;;
47762;SDS011;33526;42.690;23.322;2023-07-31T12:26:17;7.35;;;5.38;;
47762;SDS011;33526;42.690;23.322;2023-07-31T12:29:44;6.30;;;5.70;;
47762;SDS011;33526;42.690;23.322;2023-07-31T12:33:33;6.25;;;4.93;;
47762;SDS011;33526;42.690;23.322;2023-07-31T12:40:41;6.78;;;4.70;;
47762;SDS011;33526;42.690;23.322;2023-07-31T12:47:54;7.93;;;5.55;;
47762;SDS011;33526;42.690;23.322;2023-07-31T12:50:47;6.00;;;5.40;;
47762;SDS011;33526;42.690;23.322;2023-07-31T12:53:13;8.80;;;5.55;;
47762;SDS011;33526;42.690;23.322;2023-07-31T12:55:39;9.35;;;5.63;;
47762;SDS011;33526;42.690;23.322;2023-07-31T12:58:05;6.33;;;5.40;;
47762;SDS011;33526;42.690;23.322;2023-07-31T13:00:31;6.07;;;5.57;;
47762;SDS011;33526;42.690;23.322;2023-07-31T13:02:57;6.60;;;6.00;;
47762;SDS011;33526;42.690;23.322;2023-07-31T13:05:24;5.50;;;5.00;;
47762;SDS011;33526;42.690;23.322;2023-07-31T13:07:50;7.80;;;5.97;;
47762;SDS011;33526;42.690;23.322;2023-07-31T13:10:19;7.30;;;6.20;;
47762;SDS011;33526;42.690;23.322;2023-07-31T13:12:46;8.25;;;5.85;;
47762;SDS011;33526;42.690;23.322;2023-07-31T13:15:13;9.05;;;5.20;;
47762;SDS011;33526;42.690;23.322;2023-07-31T13:17:39;5.90;;;5.35;;
47762;SDS011;33526;42.690;23.322;2023-07-31T13:20:06;6.37;;;5.30;;
47762;SDS011;33526;42.690;23.322;2023-07-31T13:22:33;7.65;;;5.05;;
47762;SDS011;33526;42.690;23.322;2023-07-31T13:24:59;7.20;;;5.23;;
47762;SDS011;33526;42.690;23.322;2023-07-31T13:27:31;5.95;;;4.50;;
47762;SDS011;33526;42.690;23.322;2023-07-31T13:29:58;5.78;;;4.25;;
47762;SDS011;33526;42.690;23.322;2023-07-31T13:32:41;4.90;;;4.40;;
47762;SDS011;33526;42.690;23.322;2023-07-31T13:35:08;7.22;;;4.47;;
47762;SDS011;33526;42.690;23.322;2023-07-31T13:37:36;4.93;;;4.43;;
47762;SDS011;33526;42.690;23.322;2023-07-31T13:42:31;6.25;;;4.93;;
47762;SDS011;33526;42.690;23.322;2023-07-31T13:44:57;5.95;;;4.57;;
47762;SDS011;33526;42.690;23.322;2023-07-31T13:47:23;7.47;;;4.30;;
47762;SDS011;33526;42.690;23.322;2023-07-31T13:49:49;4.80;;;4.40;;
47762;SDS011;33526;42.690;23.322;2023-07-31T13:52:14;6.23;;;4.70;;
47762;SDS011;33526;42.690;23.322;2023-07-31T13:54:41;6.80;;;4.07;;
47762;SDS011;33526;42.690;23.322;2023-07-31T13:57:10;4.05;;;3.53;;
47762;SDS011;33526;42.690;23.322;2023-07-31T13:59:36;4.05;;;3.65;;
47762;SDS011;33526;42.690;23.322;2023-07-31T14:02:03;4.50;;;3.83;;
47762;SDS011;33526;42.690;23.322;2023-07-31T14:04:30;8.63;;;5.50;;
47762;SDS011;33526;42.690;23.322;2023-07-31T14:06:56;8.23;;;4.13;;
47762;SDS011;33526;42.690;23.322;2023-07-31T14:09:23;4.28;;;3.70;;
47762;SDS011;33526;42.690;23.322;2023-07-31T14:11:49;4.23;;;3.83;;
47762;SDS011;33526;42.690;23.322;2023-07-31T14:14:14;4.00;;;3.60;;
47762;SDS011;33526;42.690;23.322;2023-07-31T14:16:59;5.18;;;4.15;;
47762;SDS011;33526;42.690;23.322;2023-07-31T14:19:27;6.68;;;4.32;;
47762;SDS011;33526;42.690;23.322;2023-07-31T14:21:53;3.97;;;3.67;;
47762;SDS011;33526;42.690;23.322;2023-07-31T14:24:21;8.65;;;4.20;;
47762;SDS011;33526;42.690;23.322;2023-07-31T14:26:52;5.78;;;3.85;;
47762;SDS011;33526;42.690;23.322;2023-07-31T14:29:22;5.25;;;3.83;;
47762;SDS011;33526;42.690;23.322;2023-07-31T14:31:49;5.53;;;3.80;;
47762;SDS011;33526;42.690;23.322;2023-07-31T14:34:22;4.00;;;3.63;;
47762;SDS011;33526;42.690;23.322;2023-07-31T14:36:53;5.17;;;4.47;;
47762;SDS011;33526;42.690;23.322;2023-07-31T14:39:19;9.43;;;4.13;;
47762;SDS011;33526;42.690;23.322;2023-07-31T14:41:47;6.93;;;4.40;;
47762;SDS011;33526;42.690;23.322;2023-07-31T14:44:17;5.55;;;3.95;;
47762;SDS011;33526;42.690;23.322;2023-07-31T14:46:46;7.80;;;4.13;;
47762;SDS011;33526;42.690;23.322;2023-07-31T14:49:16;4.20;;;3.80;;
47762;SDS011;33526;42.690;23.322;2023-07-31T14:51:44;5.07;;;3.75;;
47762;SDS011;33526;42.690;23.322;2023-07-31T14:54:13;6.00;;;3.77;;
47762;SDS011;33526;42.690;23.322;2023-07-31T14:56:38;4.30;;;3.40;;
47762;SDS011;33526;42.690;23.322;2023-07-31T14:59:04;10.90;;;4.20;;
47762;SDS011;33526;42.690;23.322;2023-07-31T15:01:31;6.57;;;4.13;;
47762;SDS011;33526;42.690;23.322;2023-07-31T15:03:57;9.30;;;4.03;;
47762;SDS011;33526;42.690;23.322;2023-07-31T15:06:24;6.72;;;3.30;;
47762;SDS011;33526;42.690;23.322;2023-07-31T15:08:51;4.85;;;3.45;;
47762;SDS011;33526;42.690;23.322;2023-07-31T15:11:17;6.97;;;4.73;;
47762;SDS011;33526;42.690;23.322;2023-07-31T15:13:43;4.93;;;3.40;;
47762;SDS011;33526;42.690;23.322;2023-07-31T15:16:12;15.63;;;4.32;;
47762;SDS011;33526;42.690;23.322;2023-07-31T15:18:41;8.70;;;3.20;;
47762;SDS011;33526;42.690;23.322;2023-07-31T15:21:10;4.93;;;3.15;;
47762;SDS011;33526;42.690;23.322;2023-07-31T15:23:36;3.77;;;3.07;;
47762;SDS011;33526;42.690;23.322;2023-07-31T15:26:04;8.88;;;2.95;;
47762;SDS011;33526;42.690;23.322;2023-07-31T15:28:30;4.40;;;2.40;;
47762;SDS011;33526;42.690;23.322;2023-07-31T15:31:00;3.60;;;3.10;;
47762;SDS011;33526;42.690;23.322;2023-07-31T15:33:27;3.58;;;2.92;;
47762;SDS011;33526;42.690;23.322;2023-07-31T15:35:53;2.80;;;2.20;;
47762;SDS011;33526;42.690;23.322;2023-07-31T15:38:22;3.90;;;2.42;;
47762;SDS011;33526;42.690;23.322;2023-07-31T15:40:48;5.00;;;2.45;;
47762;SDS011;33526;42.690;23.322;2023-07-31T15:43:41;5.30;;;2.58;;
47762;SDS011;33526;42.690;23.322;2023-07-31T15:46:11;3.33;;;2.88;;
47762;SDS011;33526;42.690;23.322;2023-07-31T15:49:20;5.97;;;2.67;;
47762;SDS011;33526;42.690;23.322;2023-07-31T15:52:53;2.55;;;2.30;;
47762;SDS011;33526;42.690;23.322;2023-07-31T15:56:33;3.58;;;2.08;;
47762;SDS011;33526;42.690;23.322;2023-07-31T16:00:11;4.90;;;2.22;;